Sicily, Illinois
Current Conditions -  °F | °C
As of 1:15 PM on Friday 21 Nov 2014 (Local Time) from KTAZ Reporting Station
Clear Clear  
Wind Chill: 26°   Ceiling: Unl
Heat Index: 34°   Visibility: 10mi
Dew Point: 14°   Wind: 10mph
Humidity: 44%   Direction: 140°SE
Pressure: 30.37"   Gusts: NA
Location:  39.5762°N, 89.554°W
Report Text: KTAZ 211915Z AUTO 14009KT 10SM CLR 01/M10 A3037 RMK AO2
Loading
Personal Weather Stations






























Interactive Weather Map New forecast layout! Learn more

10-Day Weather Forecast

Advertisements
Track Severe Weather on mobile